sensor_id;sensor_type;location;lat;lon;timestamp;pressure;altitude;pressure_sealevel;temperature;humidity
35758;BME280;21879;50.110;18.900;2022-11-12T00:01:19;100198.45;;;8.94;64.09
35758;BME280;21879;50.110;18.900;2022-11-12T00:11:46;100220.17;;;8.80;64.14
35758;BME280;21879;50.110;18.900;2022-11-12T00:22:14;100231.95;;;8.71;64.80
35758;BME280;21879;50.110;18.900;2022-11-12T00:32:41;100228.70;;;8.65;64.43
35758;BME280;21879;50.110;18.900;2022-11-12T00:43:08;100228.37;;;8.58;63.81
35758;BME280;21879;50.110;18.900;2022-11-12T00:53:36;100216.72;;;8.42;63.43
35758;BME280;21879;50.110;18.900;2022-11-12T01:04:04;100219.80;;;8.12;63.12
35758;BME280;21879;50.110;18.900;2022-11-12T01:14:31;100225.22;;;7.94;63.24
35758;BME280;21879;50.110;18.900;2022-11-12T01:24:59;100218.98;;;7.73;63.77
35758;BME280;21879;50.110;18.900;2022-11-12T01:35:26;100219.05;;;7.56;64.77
35758;BME280;21879;50.110;18.900;2022-11-12T01:45:54;100222.88;;;7.50;65.35
35758;BME280;21879;50.110;18.900;2022-11-12T01:56:23;100225.02;;;7.60;64.54
35758;BME280;21879;50.110;18.900;2022-11-12T02:06:52;100221.09;;;7.61;64.10
35758;BME280;21879;50.110;18.900;2022-11-12T02:17:22;100224.30;;;7.65;64.00
35758;BME280;21879;50.110;18.900;2022-11-12T02:27:51;100208.98;;;7.69;63.86
35758;BME280;21879;50.110;18.900;2022-11-12T02:38:20;100209.91;;;7.51;63.00
35758;BME280;21879;50.110;18.900;2022-11-12T02:48:48;100218.23;;;7.39;63.14
35758;BME280;21879;50.110;18.900;2022-11-12T02:59:15;100217.24;;;7.34;62.98
35758;BME280;21879;50.110;18.900;2022-11-12T03:09:42;100226.48;;;7.37;63.13
35758;BME280;21879;50.110;18.900;2022-11-12T03:20:11;100220.77;;;7.24;63.16
35758;BME280;21879;50.110;18.900;2022-11-12T03:30:40;100225.17;;;7.09;62.76
35758;BME280;21879;50.110;18.900;2022-11-12T03:41:08;100216.54;;;6.92;62.24
35758;BME280;21879;50.110;18.900;2022-11-12T03:51:35;100213.32;;;6.48;62.13
35758;BME280;21879;50.110;18.900;2022-11-12T04:02:02;100215.04;;;6.42;62.55
35758;BME280;21879;50.110;18.900;2022-11-12T04:12:30;100207.59;;;6.41;62.54
35758;BME280;21879;50.110;18.900;2022-11-12T04:23:15;100205.01;;;6.20;62.82
35758;BME280;21879;50.110;18.900;2022-11-12T04:33:42;100207.55;;;6.02;62.55
35758;BME280;21879;50.110;18.900;2022-11-12T04:44:09;100203.05;;;5.92;62.52
35758;BME280;21879;50.110;18.900;2022-11-12T04:54:55;100199.86;;;5.85;62.69
35758;BME280;21879;50.110;18.900;2022-11-12T05:05:22;100205.34;;;5.93;62.76
35758;BME280;21879;50.110;18.900;2022-11-12T05:15:55;100200.28;;;5.77;62.36
35758;BME280;21879;50.110;18.900;2022-11-12T05:26:23;100193.63;;;5.49;62.68
35758;BME280;21879;50.110;18.900;2022-11-12T05:36:50;100198.54;;;5.41;62.82
35758;BME280;21879;50.110;18.900;2022-11-12T05:47:17;100202.27;;;5.29;62.82
35758;BME280;21879;50.110;18.900;2022-11-12T05:57:45;100211.64;;;5.08;62.76
35758;BME280;21879;50.110;18.900;2022-11-12T06:08:12;100224.78;;;4.58;62.99
35758;BME280;21879;50.110;18.900;2022-11-12T06:18:39;100242.66;;;4.31;63.65
35758;BME280;21879;50.110;18.900;2022-11-12T06:29:07;100248.63;;;4.29;64.87
35758;BME280;21879;50.110;18.900;2022-11-12T06:39:34;100250.48;;;4.59;65.17
35758;BME280;21879;50.110;18.900;2022-11-12T06:50:01;100251.77;;;4.74;64.84
35758;BME280;21879;50.110;18.900;2022-11-12T07:00:29;100261.67;;;4.94;64.95
35758;BME280;21879;50.110;18.900;2022-11-12T07:10:57;100259.58;;;5.03;64.73
35758;BME280;21879;50.110;18.900;2022-11-12T07:21:25;100267.23;;;4.96;65.05
35758;BME280;21879;50.110;18.900;2022-11-12T07:31:52;100268.33;;;5.15;65.89
35758;BME280;21879;50.110;18.900;2022-11-12T07:42:20;100264.40;;;5.49;66.12
35758;BME280;21879;50.110;18.900;2022-11-12T07:52:47;100265.05;;;5.87;66.70
35758;BME280;21879;50.110;18.900;2022-11-12T08:03:15;100272.87;;;6.41;67.62
35758;BME280;21879;50.110;18.900;2022-11-12T08:13:42;100276.02;;;6.85;68.45
35758;BME280;21879;50.110;18.900;2022-11-12T08:24:10;100278.55;;;7.01;69.76
35758;BME280;21879;50.110;18.900;2022-11-12T08:34:37;100279.50;;;7.15;70.72
35758;BME280;21879;50.110;18.900;2022-11-12T08:45:07;100281.02;;;7.57;71.71
35758;BME280;21879;50.110;18.900;2022-11-12T08:55:35;100274.79;;;8.02;71.96
35758;BME280;21879;50.110;18.900;2022-11-12T09:06:05;100280.17;;;8.50;71.93
35758;BME280;21879;50.110;18.900;2022-11-12T09:16:32;100283.15;;;8.96;71.47
35758;BME280;21879;50.110;18.900;2022-11-12T09:26:59;100279.34;;;9.37;70.69
35758;BME280;21879;50.110;18.900;2022-11-12T09:37:27;100276.05;;;9.72;70.15
35758;BME280;21879;50.110;18.900;2022-11-12T09:47:57;100267.61;;;10.05;69.36
35758;BME280;21879;50.110;18.900;2022-11-12T09:58:26;100270.42;;;10.36;68.81
35758;BME280;21879;50.110;18.900;2022-11-12T10:08:59;100266.98;;;10.60;67.92
35758;BME280;21879;50.110;18.900;2022-11-12T10:19:36;100264.55;;;10.83;67.39
35758;BME280;21879;50.110;18.900;2022-11-12T10:30:15;100258.46;;;11.08;66.56
35758;BME280;21879;50.110;18.900;2022-11-12T10:40:43;100252.64;;;11.29;66.28
35758;BME280;21879;50.110;18.900;2022-11-12T10:51:21;100251.30;;;11.49;65.84
35758;BME280;21879;50.110;18.900;2022-11-12T11:01:57;100250.11;;;11.67;65.33
35758;BME280;21879;50.110;18.900;2022-11-12T11:12:26;100252.23;;;11.85;64.82
35758;BME280;21879;50.110;18.900;2022-11-12T11:22:57;100245.23;;;11.99;64.58
35758;BME280;21879;50.110;18.900;2022-11-12T11:33:37;100238.20;;;12.12;64.25
35758;BME280;21879;50.110;18.900;2022-11-12T11:44:17;100236.69;;;12.19;63.90
35758;BME280;21879;50.110;18.900;2022-11-12T11:54:59;100241.46;;;12.26;63.52
35758;BME280;21879;50.110;18.900;2022-11-12T12:05:35;100232.49;;;12.38;63.08
35758;BME280;21879;50.110;18.900;2022-11-12T12:16:27;100225.23;;;12.46;62.62
35758;BME280;21879;50.110;18.900;2022-11-12T12:27:03;100215.66;;;12.52;61.87
35758;BME280;21879;50.110;18.900;2022-11-12T12:37:38;100201.39;;;12.55;61.91
35758;BME280;21879;50.110;18.900;2022-11-12T12:48:14;100198.96;;;12.59;61.61
35758;BME280;21879;50.110;18.900;2022-11-12T12:58:45;100195.49;;;12.62;61.47
35758;BME280;21879;50.110;18.900;2022-11-12T13:09:24;100188.33;;;12.61;61.39
35758;BME280;21879;50.110;18.900;2022-11-12T13:31:02;100181.20;;;12.66;60.71
35758;BME280;21879;50.110;18.900;2022-11-12T13:41:30;100175.77;;;12.62;60.22
35758;BME280;21879;50.110;18.900;2022-11-12T13:52:22;100177.86;;;12.60;60.22
35758;BME280;21879;50.110;18.900;2022-11-12T14:02:53;100180.89;;;12.72;61.61
35758;BME280;21879;50.110;18.900;2022-11-12T14:13:36;100175.34;;;12.79;60.58
35758;BME280;21879;50.110;18.900;2022-11-12T14:24:11;100164.88;;;12.82;59.88
35758;BME280;21879;50.110;18.900;2022-11-12T14:34:39;100162.98;;;12.83;59.34
35758;BME280;21879;50.110;18.900;2022-11-12T14:45:15;100161.92;;;12.83;59.16
35758;BME280;21879;50.110;18.900;2022-11-12T14:55:48;100156.88;;;12.87;59.14
35758;BME280;21879;50.110;18.900;2022-11-12T15:06:25;100160.59;;;12.95;59.01
35758;BME280;21879;50.110;18.900;2022-11-12T15:16:54;100156.01;;;12.27;58.86
35758;BME280;21879;50.110;18.900;2022-11-12T15:27:36;100160.36;;;12.01;60.16
35758;BME280;21879;50.110;18.900;2022-11-12T15:38:09;100165.91;;;12.20;60.41
35758;BME280;21879;50.110;18.900;2022-11-12T15:48:38;100162.27;;;12.24;60.28
35758;BME280;21879;50.110;18.900;2022-11-12T15:59:07;100161.14;;;12.11;60.32
35758;BME280;21879;50.110;18.900;2022-11-12T16:09:35;100164.23;;;11.69;60.23
35758;BME280;21879;50.110;18.900;2022-11-12T16:20:13;100171.42;;;11.39;60.56
35758;BME280;21879;50.110;18.900;2022-11-12T16:30:40;100173.60;;;11.01;60.52
35758;BME280;21879;50.110;18.900;2022-11-12T16:41:11;100184.04;;;10.61;60.78
35758;BME280;21879;50.110;18.900;2022-11-12T16:51:39;100178.17;;;10.40;61.41
35758;BME280;21879;50.110;18.900;2022-11-12T17:02:12;100178.79;;;10.25;61.22
35758;BME280;21879;50.110;18.900;2022-11-12T17:12:44;100186.53;;;9.88;60.93
35758;BME280;21879;50.110;18.900;2022-11-12T17:23:14;100193.32;;;9.60;60.99
35758;BME280;21879;50.110;18.900;2022-11-12T17:33:43;100194.80;;;9.46;61.03
35758;BME280;21879;50.110;18.900;2022-11-12T17:44:15;100191.35;;;9.47;60.83
35758;BME280;21879;50.110;18.900;2022-11-12T17:54:43;100185.37;;;9.08;60.33
35758;BME280;21879;50.110;18.900;2022-11-12T18:05:11;100186.56;;;8.73;60.76
35758;BME280;21879;50.110;18.900;2022-11-12T18:15:38;100187.79;;;8.50;60.59
35758;BME280;21879;50.110;18.900;2022-11-12T18:26:06;100183.19;;;8.17;60.33
35758;BME280;21879;50.110;18.900;2022-11-12T18:36:33;100180.10;;;8.04;60.93
35758;BME280;21879;50.110;18.900;2022-11-12T18:47:01;100193.46;;;7.77;61.34
35758;BME280;21879;50.110;18.900;2022-11-12T18:57:28;100201.22;;;7.49;61.44
35758;BME280;21879;50.110;18.900;2022-11-12T19:07:56;100206.73;;;7.43;61.95
35758;BME280;21879;50.110;18.900;2022-11-12T19:18:23;100213.34;;;7.43;61.76
35758;BME280;21879;50.110;18.900;2022-11-12T19:28:51;100223.56;;;7.38;61.47
35758;BME280;21879;50.110;18.900;2022-11-12T19:39:19;100235.68;;;7.13;61.21
35758;BME280;21879;50.110;18.900;2022-11-12T19:49:46;100248.25;;;6.94;61.09
35758;BME280;21879;50.110;18.900;2022-11-12T20:00:15;100252.75;;;6.88;61.30
35758;BME280;21879;50.110;18.900;2022-11-12T20:10:43;100248.75;;;6.81;61.38
35758;BME280;21879;50.110;18.900;2022-11-12T20:21:11;100245.66;;;6.65;61.38
35758;BME280;21879;50.110;18.900;2022-11-12T20:31:38;100251.98;;;6.41;62.54
35758;BME280;21879;50.110;18.900;2022-11-12T20:42:07;100266.43;;;6.39;64.50
35758;BME280;21879;50.110;18.900;2022-11-12T20:52:34;100264.92;;;6.57;66.27
35758;BME280;21879;50.110;18.900;2022-11-12T21:03:01;100260.04;;;6.67;67.39
35758;BME280;21879;50.110;18.900;2022-11-12T21:13:29;100259.35;;;6.78;68.00
35758;BME280;21879;50.110;18.900;2022-11-12T21:23:56;100264.68;;;6.49;68.56
35758;BME280;21879;50.110;18.900;2022-11-12T21:34:29;100272.00;;;6.35;69.82
35758;BME280;21879;50.110;18.900;2022-11-12T21:44:57;100267.36;;;6.69;70.19
35758;BME280;21879;50.110;18.900;2022-11-12T21:55:24;100258.84;;;6.72;70.16
35758;BME280;21879;50.110;18.900;2022-11-12T22:05:51;100257.01;;;6.80;70.64
35758;BME280;21879;50.110;18.900;2022-11-12T22:16:21;100252.18;;;6.92;70.70
35758;BME280;21879;50.110;18.900;2022-11-12T22:26:48;100250.64;;;6.98;70.78
35758;BME280;21879;50.110;18.900;2022-11-12T22:37:16;100255.79;;;6.97;70.79
35758;BME280;21879;50.110;18.900;2022-11-12T22:47:43;100242.13;;;7.09;71.21
35758;BME280;21879;50.110;18.900;2022-11-12T22:58:10;100245.59;;;7.21;71.24
35758;BME280;21879;50.110;18.900;2022-11-12T23:08:38;100242.07;;;7.50;70.99
35758;BME280;21879;50.110;18.900;2022-11-12T23:19:06;100238.92;;;7.49;70.39
35758;BME280;21879;50.110;18.900;2022-11-12T23:29:34;100233.48;;;7.59;70.64
35758;BME280;21879;50.110;18.900;2022-11-12T23:40:02;100227.46;;;7.67;70.34
35758;BME280;21879;50.110;18.900;2022-11-12T23:50:30;100226.86;;;7.57;70.12
